Terminal Aerodrome Forecast
Issued by NWS

Home | Current Version | Previous Version | Text Only | Print | Product List | Glossary On
Versions: 1 2 3 4 5 6 7 8 9 10 11 12 13 14 15 16 17
978
FTUS43 KBIS 081127
TAFMOT
TAF
KMOT 081127Z 0812/0912 30015G25KT P6SM SCT090
     FM082300 30012KT P6SM BKN100
     FM090200 30008KT P6SM BKN070
     FM090800 34006KT P6SM VCSH OVC025=

USA.gov is the U.S. government's official web portal to all federal, state and local government web resources and services.